createdAt,value
2022-12-31T00:00:05.694Z,74.53
2022-12-31T00:02:32.269Z,71.40
2022-12-31T00:04:59.007Z,69.03
2022-12-31T00:07:25.519Z,75.93
2022-12-31T00:09:52.029Z,74.60
2022-12-31T00:12:18.573Z,75.57
2022-12-31T00:14:45.057Z,85.67
2022-12-31T00:17:11.778Z,91.77
2022-12-31T00:19:38.408Z,90.63
2022-12-31T00:22:04.971Z,89.63
2022-12-31T00:24:31.563Z,88.23
2022-12-31T00:26:58.091Z,85.93
2022-12-31T00:29:24.694Z,87.57
2022-12-31T00:31:51.218Z,82.73
2022-12-31T00:34:17.705Z,83.37
2022-12-31T00:36:46.184Z,88.17
2022-12-31T00:39:12.859Z,84.23
2022-12-31T00:41:39.458Z,76.80
2022-12-31T00:44:05.991Z,81.70
2022-12-31T00:46:32.541Z,80.47
2022-12-31T00:48:59.136Z,84.37
2022-12-31T00:51:27.790Z,78.33
2022-12-31T00:53:54.914Z,79.50
2022-12-31T00:56:22.147Z,76.17
2022-12-31T00:58:48.731Z,83.10
2022-12-31T01:01:16.960Z,78.70
2022-12-31T01:03:43.997Z,79.03
2022-12-31T01:06:10.651Z,76.47
2022-12-31T01:08:37.249Z,77.07
2022-12-31T01:11:22.856Z,72.80
2022-12-31T01:13:49.940Z,78.33
2022-12-31T01:16:16.704Z,76.97
2022-12-31T01:18:43.895Z,75.00
2022-12-31T01:21:10.935Z,71.57
2022-12-31T01:23:37.462Z,73.53
2022-12-31T01:26:04.463Z,68.23
2022-12-31T01:28:31.073Z,74.23
2022-12-31T01:30:57.622Z,75.33
2022-12-31T01:33:24.179Z,77.67
2022-12-31T01:35:50.828Z,78.30
2022-12-31T01:38:17.360Z,79.87
2022-12-31T01:40:44.024Z,73.93
2022-12-31T01:43:15.486Z,75.47
2022-12-31T01:45:42.156Z,74.13
2022-12-31T01:48:08.822Z,74.17
2022-12-31T01:50:35.338Z,73.37
2022-12-31T01:53:04.091Z,75.97
2022-12-31T01:55:32.223Z,75.53
2022-12-31T01:58:05.669Z,70.87
2022-12-31T02:00:32.670Z,66.07
2022-12-31T02:02:59.249Z,61.93
2022-12-31T02:05:26.000Z,59.63
2022-12-31T02:07:52.580Z,58.03
2022-12-31T02:10:19.177Z,47.60
2022-12-31T02:12:46.117Z,41.97
2022-12-31T02:15:12.646Z,42.93
2022-12-31T02:17:43.395Z,44.73
2022-12-31T02:20:19.044Z,41.63
2022-12-31T02:22:45.511Z,43.40
2022-12-31T02:25:12.210Z,37.93
2022-12-31T02:27:57.156Z,39.90
2022-12-31T02:30:23.932Z,37.13
2022-12-31T02:32:53.507Z,38.63
2022-12-31T02:35:22.254Z,37.77
2022-12-31T02:37:50.546Z,34.27
2022-12-31T02:40:17.785Z,30.37
2022-12-31T02:42:45.576Z,30.27
2022-12-31T02:45:14.280Z,29.87
2022-12-31T02:47:40.742Z,28.27
2022-12-31T02:50:29.376Z,27.57
2022-12-31T02:53:06.103Z,26.43
2022-12-31T02:55:35.816Z,26.97
2022-12-31T02:58:08.386Z,25.43
2022-12-31T03:00:53.881Z,23.27
2022-12-31T03:03:20.406Z,22.73
2022-12-31T03:05:46.937Z,22.20
2022-12-31T03:08:20.396Z,21.57
2022-12-31T03:10:46.981Z,20.77
2022-12-31T03:13:13.476Z,19.67
2022-12-31T03:15:39.977Z,18.57
2022-12-31T03:18:06.476Z,18.73
2022-12-31T03:20:55.188Z,17.70
2022-12-31T03:23:25.883Z,16.70
2022-12-31T03:25:53.526Z,17.67
2022-12-31T03:28:21.445Z,16.30
2022-12-31T03:30:48.744Z,16.10
2022-12-31T03:33:15.673Z,14.77
2022-12-31T03:35:42.653Z,14.13
2022-12-31T03:38:09.323Z,15.53
2022-12-31T03:40:39.855Z,16.03
2022-12-31T03:43:06.706Z,16.23
2022-12-31T03:45:34.443Z,17.17
2022-12-31T03:48:01.469Z,17.13
2022-12-31T03:50:28.163Z,17.40
2022-12-31T03:52:54.728Z,18.10
2022-12-31T03:55:21.243Z,18.87
2022-12-31T03:57:47.748Z,17.97
2022-12-31T04:00:15.047Z,16.40
2022-12-31T04:02:41.906Z,15.87
2022-12-31T04:05:08.480Z,15.57
2022-12-31T04:07:35.063Z,14.03
2022-12-31T04:10:01.535Z,13.70
2022-12-31T04:12:28.085Z,13.63
2022-12-31T04:14:54.559Z,14.40
2022-12-31T04:17:21.145Z,13.20
2022-12-31T04:19:47.660Z,13.57
2022-12-31T04:22:14.244Z,13.90
2022-12-31T04:24:41.638Z,14.57
2022-12-31T04:27:08.291Z,14.67
2022-12-31T04:29:35.160Z,13.40
2022-12-31T04:32:01.759Z,14.20
2022-12-31T04:34:28.401Z,13.57
2022-12-31T04:36:54.898Z,13.27
2022-12-31T04:39:21.434Z,12.77
2022-12-31T04:41:48.069Z,11.73
2022-12-31T04:44:14.667Z,12.83
2022-12-31T04:46:41.245Z,12.63
2022-12-31T04:49:07.809Z,12.00
2022-12-31T04:51:34.365Z,13.13
2022-12-31T04:54:00.958Z,11.20
2022-12-31T04:56:27.695Z,12.00
2022-12-31T04:58:54.264Z,11.67
2022-12-31T05:01:21.041Z,12.03
2022-12-31T05:03:47.745Z,11.43
2022-12-31T05:06:18.289Z,11.83
2022-12-31T05:08:44.899Z,13.07
2022-12-31T05:11:11.610Z,12.97
2022-12-31T05:13:38.352Z,12.13
2022-12-31T05:16:04.999Z,12.00
2022-12-31T05:18:31.703Z,11.83
2022-12-31T05:20:58.274Z,11.80
2022-12-31T05:23:25.007Z,11.83
2022-12-31T05:25:51.546Z,10.10
2022-12-31T05:28:18.113Z,11.30
2022-12-31T05:30:44.854Z,11.27
2022-12-31T05:33:11.463Z,10.73
2022-12-31T05:35:38.106Z,11.20
2022-12-31T05:38:04.647Z,10.07
2022-12-31T05:40:31.682Z,9.60
2022-12-31T05:42:58.260Z,9.83
2022-12-31T05:45:30.316Z,9.77
2022-12-31T05:47:57.657Z,9.43
2022-12-31T05:50:24.172Z,9.00
2022-12-31T05:52:50.848Z,9.37
2022-12-31T05:55:17.393Z,8.47
2022-12-31T05:57:43.914Z,8.20
2022-12-31T06:00:10.655Z,8.20
2022-12-31T06:02:37.283Z,7.97
2022-12-31T06:05:04.024Z,7.03
2022-12-31T06:07:30.540Z,7.60
2022-12-31T06:09:57.041Z,7.10
2022-12-31T06:12:23.614Z,7.30
2022-12-31T06:14:50.094Z,7.07
2022-12-31T06:17:16.715Z,7.40
2022-12-31T06:19:43.231Z,7.47
2022-12-31T06:22:09.780Z,7.13
2022-12-31T06:24:36.315Z,7.13
2022-12-31T06:27:02.806Z,8.00
2022-12-31T06:29:29.343Z,7.50
2022-12-31T06:31:55.938Z,7.70
2022-12-31T06:34:22.471Z,7.47
2022-12-31T06:36:49.287Z,7.80
2022-12-31T06:39:15.817Z,7.23
2022-12-31T06:41:42.402Z,6.10
2022-12-31T06:44:08.965Z,6.53
2022-12-31T06:46:35.644Z,6.37
2022-12-31T06:49:02.295Z,7.10
2022-12-31T06:51:28.799Z,7.03
2022-12-31T06:53:55.464Z,6.53
2022-12-31T06:56:26.547Z,7.27
2022-12-31T06:58:56.336Z,7.60
2022-12-31T07:01:30.809Z,7.13
2022-12-31T07:04:00.985Z,6.93
2022-12-31T07:06:34.643Z,7.37
2022-12-31T07:09:13.303Z,7.10
2022-12-31T07:12:00.102Z,5.90
2022-12-31T07:14:35.387Z,5.70
2022-12-31T07:17:20.818Z,4.93
2022-12-31T07:19:49.980Z,5.77
2022-12-31T07:22:20.887Z,5.53
2022-12-31T07:24:47.724Z,5.87
2022-12-31T07:27:14.335Z,5.13
2022-12-31T07:29:40.848Z,5.27
2022-12-31T07:32:25.501Z,5.87
2022-12-31T07:35:11.130Z,6.83
2022-12-31T07:37:52.911Z,6.20
2022-12-31T07:40:38.164Z,7.20
2022-12-31T07:43:04.836Z,6.70
2022-12-31T07:45:34.143Z,7.20
2022-12-31T07:48:03.015Z,7.23
2022-12-31T07:50:29.997Z,8.03
2022-12-31T07:52:56.710Z,6.43
2022-12-31T07:55:23.216Z,7.13
2022-12-31T07:57:52.622Z,6.10
2022-12-31T08:00:19.368Z,6.30
2022-12-31T08:02:49.009Z,6.40
2022-12-31T08:05:18.793Z,5.57
2022-12-31T08:07:51.845Z,6.17
2022-12-31T08:10:21.503Z,6.07
2022-12-31T08:12:48.636Z,6.00
2022-12-31T08:15:15.793Z,5.53
2022-12-31T08:17:42.489Z,6.43
2022-12-31T08:20:12.749Z,5.87
2022-12-31T08:22:43.076Z,6.33
2022-12-31T08:25:30.389Z,5.97
2022-12-31T08:28:07.667Z,5.40
2022-12-31T08:30:39.451Z,5.47
2022-12-31T08:33:20.215Z,5.03
2022-12-31T08:36:05.216Z,5.27
2022-12-31T08:38:44.738Z,5.20
2022-12-31T08:41:21.080Z,5.10
2022-12-31T08:43:50.314Z,4.60
2022-12-31T08:46:20.128Z,4.67
2022-12-31T08:48:48.558Z,3.80
2022-12-31T08:51:19.323Z,4.37
2022-12-31T08:53:46.157Z,3.77
2022-12-31T08:56:32.367Z,4.70
2022-12-31T08:59:14.263Z,4.33
2022-12-31T09:01:59.128Z,3.57
2022-12-31T09:04:27.446Z,4.80
2022-12-31T09:06:58.727Z,4.80
2022-12-31T09:09:55.596Z,3.43
2022-12-31T09:12:40.989Z,4.00
2022-12-31T09:15:10.771Z,3.67
2022-12-31T09:17:43.854Z,4.43
2022-12-31T09:20:18.046Z,3.70
2022-12-31T09:22:44.727Z,4.03
2022-12-31T09:25:15.655Z,3.83
2022-12-31T09:28:01.084Z,4.77
2022-12-31T09:30:28.323Z,5.00
2022-12-31T09:33:13.803Z,5.20
2022-12-31T09:35:56.642Z,3.90
2022-12-31T09:38:27.462Z,4.53
2022-12-31T09:40:56.087Z,4.60
2022-12-31T09:43:34.850Z,4.47
2022-12-31T09:46:01.461Z,5.27
2022-12-31T09:48:31.108Z,4.67
2022-12-31T09:51:09.619Z,5.00
2022-12-31T09:53:38.775Z,3.87
2022-12-31T09:56:17.664Z,3.27
2022-12-31T09:58:45.549Z,3.83
2022-12-31T10:01:23.800Z,3.67
2022-12-31T10:04:20.097Z,3.23
2022-12-31T10:07:05.449Z,2.30
2022-12-31T10:09:50.352Z,2.87
2022-12-31T10:12:22.476Z,2.67
2022-12-31T10:15:08.594Z,2.67
2022-12-31T10:17:38.009Z,3.13
2022-12-31T10:20:05.638Z,2.47
2022-12-31T10:22:42.233Z,3.30
2022-12-31T10:25:39.651Z,3.07
2022-12-31T10:28:07.043Z,1.90
2022-12-31T10:30:36.533Z,2.40
2022-12-31T10:33:29.170Z,2.67
2022-12-31T10:36:14.618Z,2.47
2022-12-31T10:38:47.254Z,2.53
2022-12-31T10:41:13.925Z,1.87
2022-12-31T10:43:46.699Z,1.43
2022-12-31T10:46:20.882Z,1.63
2022-12-31T10:49:22.026Z,2.00
2022-12-31T10:51:57.672Z,1.87
2022-12-31T10:54:48.646Z,1.90
2022-12-31T10:57:15.317Z,1.97
2022-12-31T10:59:44.928Z,1.80
2022-12-31T11:02:30.572Z,2.05
2022-12-31T11:05:00.230Z,1.60
2022-12-31T11:07:30.019Z,1.90
2022-12-31T11:09:59.592Z,1.70
2022-12-31T11:12:37.946Z,1.73
2022-12-31T11:15:22.802Z,2.27
2022-12-31T11:17:56.110Z,2.10
2022-12-31T11:20:41.224Z,1.65
2022-12-31T11:23:12.253Z,1.75
2022-12-31T11:25:38.817Z,2.45
2022-12-31T11:28:08.199Z,1.57
2022-12-31T11:30:47.874Z,1.38
2022-12-31T11:33:17.413Z,1.87
2022-12-31T11:35:50.650Z,1.93
2022-12-31T11:38:20.207Z,2.38
2022-12-31T11:41:07.012Z,2.10
2022-12-31T11:43:41.611Z,2.17
2022-12-31T11:46:27.108Z,2.10
2022-12-31T11:49:02.922Z,2.30
2022-12-31T11:51:38.426Z,2.28
2022-12-31T11:54:08.052Z,2.20
2022-12-31T11:56:38.260Z,2.30
2022-12-31T11:59:12.074Z,2.55
2022-12-31T12:01:47.205Z,2.63
2022-12-31T12:04:13.866Z,2.30
2022-12-31T12:06:40.426Z,2.38
2022-12-31T12:09:10.795Z,1.60
2022-12-31T12:11:40.599Z,3.00
2022-12-31T12:14:23.176Z,2.88
2022-12-31T12:16:56.743Z,3.20
2022-12-31T12:19:26.645Z,3.13
2022-12-31T12:21:53.497Z,2.88
2022-12-31T12:24:26.781Z,2.50
2022-12-31T12:26:53.417Z,2.17
2022-12-31T12:29:29.964Z,2.60
2022-12-31T12:32:06.838Z,2.80
2022-12-31T12:34:37.247Z,2.97
2022-12-31T12:37:03.829Z,3.28
2022-12-31T12:39:31.269Z,2.80
2022-12-31T12:42:01.611Z,3.00
2022-12-31T12:44:28.238Z,3.15
2022-12-31T12:46:55.198Z,2.90
2022-12-31T12:49:48.034Z,2.72
2022-12-31T12:52:14.571Z,2.40
2022-12-31T12:55:07.586Z,2.70
2022-12-31T12:57:51.348Z,2.15
2022-12-31T13:00:21.876Z,2.65
2022-12-31T13:02:54.604Z,2.70
2022-12-31T13:05:36.428Z,2.42
2022-12-31T13:08:15.108Z,5.40
2022-12-31T13:10:58.556Z,2.35
2022-12-31T13:13:29.439Z,2.78
2022-12-31T13:16:05.216Z,2.40
2022-12-31T13:18:58.141Z,2.53
2022-12-31T13:21:30.933Z,2.85
2022-12-31T13:24:07.086Z,2.50
2022-12-31T13:26:33.619Z,2.83
2022-12-31T13:29:00.380Z,2.92
2022-12-31T13:31:30.714Z,2.55
2022-12-31T13:33:59.588Z,2.63
2022-12-31T13:36:26.859Z,3.20
2022-12-31T13:38:54.151Z,2.67
2022-12-31T13:41:28.365Z,2.85
2022-12-31T13:43:54.947Z,2.83
2022-12-31T13:46:30.692Z,2.97
2022-12-31T13:48:58.466Z,2.95
2022-12-31T13:51:45.361Z,2.97
2022-12-31T13:54:14.896Z,3.28
2022-12-31T13:56:41.628Z,3.58
2022-12-31T13:59:27.094Z,3.13
2022-12-31T14:02:23.310Z,2.88
2022-12-31T14:04:50.818Z,2.83
2022-12-31T14:07:35.369Z,3.72
2022-12-31T14:10:09.700Z,3.65
2022-12-31T14:12:42.531Z,3.30
2022-12-31T14:15:27.981Z,4.07
2022-12-31T14:17:54.536Z,3.90
2022-12-31T14:20:27.305Z,3.80
2022-12-31T14:23:13.024Z,4.15
2022-12-31T14:25:41.101Z,3.97
2022-12-31T14:28:07.965Z,4.07
2022-12-31T14:30:35.550Z,4.85
2022-12-31T14:33:05.733Z,4.28
2022-12-31T14:35:35.551Z,4.47
2022-12-31T14:38:16.890Z,4.80
2022-12-31T14:40:46.459Z,3.53
2022-12-31T14:43:28.733Z,4.28
2022-12-31T14:46:00.487Z,4.65
2022-12-31T14:48:36.826Z,4.50
2022-12-31T14:51:03.519Z,4.35
2022-12-31T14:53:30.149Z,4.78
2022-12-31T14:56:06.585Z,4.95
2022-12-31T14:58:37.006Z,4.80
2022-12-31T15:01:10.348Z,5.00
2022-12-31T15:03:46.003Z,4.65
2022-12-31T15:06:18.983Z,4.90
2022-12-31T15:08:56.501Z,4.82
2022-12-31T15:11:27.722Z,4.68
2022-12-31T15:14:03.889Z,5.53
2022-12-31T15:16:34.773Z,5.25
2022-12-31T15:19:03.063Z,5.75
2022-12-31T15:21:48.471Z,5.50
2022-12-31T15:24:33.802Z,6.10
2022-12-31T15:27:04.329Z,6.47
2022-12-31T15:29:41.841Z,6.25
2022-12-31T15:32:08.666Z,6.30
2022-12-31T15:34:35.999Z,6.70
2022-12-31T15:37:03.589Z,7.18
2022-12-31T15:39:30.118Z,7.57
2022-12-31T15:44:51.969Z,8.75
2022-12-31T15:47:29.550Z,8.05
2022-12-31T15:49:56.399Z,8.05
2022-12-31T15:52:24.883Z,8.43
2022-12-31T15:54:51.804Z,9.48
2022-12-31T15:57:19.536Z,7.82
2022-12-31T15:59:46.227Z,10.85
2022-12-31T16:02:18.690Z,7.82
2022-12-31T16:04:45.501Z,7.32
2022-12-31T16:07:12.096Z,7.10
2022-12-31T16:09:38.703Z,6.93
2022-12-31T16:12:09.265Z,7.38
2022-12-31T16:14:37.035Z,5.95
2022-12-31T16:17:03.683Z,4.95
2022-12-31T16:19:41.160Z,4.85
2022-12-31T16:22:08.842Z,3.47
2022-12-31T16:24:48.903Z,4.18
2022-12-31T16:27:22.000Z,4.32
2022-12-31T16:29:55.476Z,5.25
2022-12-31T16:32:22.472Z,4.85
2022-12-31T16:34:49.260Z,4.88
2022-12-31T16:37:16.877Z,4.45
2022-12-31T16:40:02.298Z,4.65
2022-12-31T16:42:28.996Z,4.47
2022-12-31T16:44:56.098Z,5.47
2022-12-31T16:47:23.837Z,4.63
2022-12-31T16:49:51.114Z,4.82
2022-12-31T16:52:28.247Z,5.38
2022-12-31T16:54:54.997Z,5.22
2022-12-31T16:57:22.105Z,5.65
2022-12-31T16:59:48.896Z,6.40
2022-12-31T17:02:19.619Z,5.85
2022-12-31T17:04:55.745Z,5.47
2022-12-31T17:07:26.982Z,6.00
2022-12-31T17:10:03.339Z,4.80
2022-12-31T17:12:30.039Z,5.35
2022-12-31T17:14:57.597Z,5.93
2022-12-31T17:17:24.977Z,6.45
2022-12-31T17:19:51.928Z,6.03
2022-12-31T17:22:31.627Z,6.70
2022-12-31T17:25:08.212Z,5.38
2022-12-31T17:27:35.053Z,5.93
2022-12-31T17:30:20.451Z,6.07
2022-12-31T17:32:50.095Z,6.00
2022-12-31T17:35:30.151Z,6.28
2022-12-31T17:38:16.674Z,6.00
2022-12-31T17:40:52.006Z,5.85
2022-12-31T17:43:19.523Z,6.55
2022-12-31T17:45:46.592Z,6.28
2022-12-31T17:48:14.120Z,5.90
2022-12-31T17:50:47.637Z,5.05
2022-12-31T17:53:14.233Z,5.55
2022-12-31T17:55:42.248Z,7.30
2022-12-31T17:58:09.168Z,6.63
2022-12-31T18:00:35.813Z,5.10
2022-12-31T18:03:03.794Z,5.65
2022-12-31T18:05:30.371Z,5.25
2022-12-31T18:07:57.002Z,4.72
2022-12-31T18:10:24.022Z,3.88
2022-12-31T18:12:50.592Z,4.13
2022-12-31T18:15:17.949Z,4.80
2022-12-31T18:17:44.578Z,4.78
2022-12-31T18:20:11.242Z,4.60
2022-12-31T18:22:38.527Z,5.05
2022-12-31T18:25:06.802Z,4.05
2022-12-31T18:27:34.879Z,4.40
2022-12-31T18:30:05.507Z,4.28
2022-12-31T18:32:34.543Z,4.10
2022-12-31T18:35:02.101Z,4.32
2022-12-31T18:37:28.978Z,4.57
2022-12-31T18:39:56.158Z,3.83
2022-12-31T18:42:23.337Z,4.32
2022-12-31T18:44:49.888Z,5.30
2022-12-31T18:47:17.287Z,5.05
2022-12-31T18:49:45.043Z,5.53
2022-12-31T18:52:15.110Z,4.25
2022-12-31T18:54:41.846Z,4.75
2022-12-31T18:57:09.413Z,4.63
2022-12-31T18:59:35.968Z,5.18
2022-12-31T19:02:02.685Z,4.10
2022-12-31T19:04:29.333Z,4.40
2022-12-31T19:06:56.568Z,5.53
2022-12-31T19:09:44.553Z,5.00
2022-12-31T19:12:13.272Z,4.80
2022-12-31T19:14:39.901Z,4.95
2022-12-31T19:19:31.990Z,6.93
2022-12-31T19:21:58.522Z,5.05
2022-12-31T19:24:26.768Z,4.50
2022-12-31T19:26:53.643Z,4.72
2022-12-31T19:29:23.930Z,4.18
2022-12-31T19:31:50.527Z,4.40
2022-12-31T19:34:17.150Z,5.00
2022-12-31T19:36:44.297Z,4.20
2022-12-31T19:39:13.795Z,4.60
2022-12-31T19:41:41.787Z,3.80
2022-12-31T19:44:12.360Z,4.20
2022-12-31T19:46:38.864Z,3.72
2022-12-31T19:49:05.503Z,3.95
2022-12-31T19:51:32.037Z,4.40
2022-12-31T19:53:58.587Z,4.13
2022-12-31T19:56:25.116Z,4.65
2022-12-31T19:58:51.801Z,3.92
2022-12-31T20:01:22.422Z,4.13
2022-12-31T20:03:49.080Z,3.72
2022-12-31T20:06:15.808Z,5.68
2022-12-31T20:08:46.659Z,3.95
2022-12-31T20:11:17.747Z,4.13
2022-12-31T20:13:44.291Z,4.22
2022-12-31T20:16:13.122Z,5.72
2022-12-31T20:18:41.892Z,5.68
2022-12-31T20:21:12.634Z,4.75
2022-12-31T20:23:39.206Z,5.63
2022-12-31T20:26:05.858Z,5.30
2022-12-31T20:28:32.396Z,5.63
2022-12-31T20:30:59.036Z,5.15
2022-12-31T20:33:25.719Z,5.38
2022-12-31T20:35:52.370Z,6.45
2022-12-31T20:38:19.241Z,5.97
2022-12-31T20:40:47.109Z,6.45
2022-12-31T20:43:14.127Z,7.05
2022-12-31T20:45:41.225Z,7.93
2022-12-31T20:48:07.839Z,8.13
2022-12-31T20:50:34.398Z,7.70
2022-12-31T20:53:01.049Z,7.90
2022-12-31T20:55:27.696Z,8.60
2022-12-31T20:57:54.267Z,7.82
2022-12-31T21:00:20.982Z,8.02
2022-12-31T21:02:56.358Z,7.60
2022-12-31T21:05:27.675Z,7.65
2022-12-31T21:07:54.411Z,8.05
2022-12-31T21:10:20.955Z,7.90
2022-12-31T21:12:53.399Z,9.40
2022-12-31T21:15:20.457Z,10.90
2022-12-31T21:17:47.046Z,9.90
2022-12-31T21:20:13.673Z,11.02
2022-12-31T21:22:40.285Z,12.02
2022-12-31T21:25:07.026Z,10.63
2022-12-31T21:27:33.622Z,11.93
2022-12-31T21:32:46.797Z,11.32
2022-12-31T21:38:03.548Z,11.48
2022-12-31T21:40:30.297Z,12.35
2022-12-31T21:42:56.926Z,11.55
2022-12-31T21:45:23.641Z,10.10
2022-12-31T21:48:08.809Z,10.38
2022-12-31T21:50:35.394Z,10.30
2022-12-31T21:53:03.313Z,10.55
2022-12-31T21:55:48.568Z,10.35
2022-12-31T21:58:25.880Z,10.27
2022-12-31T22:01:12.653Z,10.50
2022-12-31T22:03:39.511Z,10.50
2022-12-31T22:06:12.682Z,10.52
2022-12-31T22:08:39.679Z,9.77
2022-12-31T22:11:06.233Z,10.35
2022-12-31T22:13:33.140Z,10.55
2022-12-31T22:16:04.902Z,10.48
2022-12-31T22:18:34.558Z,10.13
2022-12-31T22:21:04.942Z,9.98
2022-12-31T22:23:31.872Z,10.40
2022-12-31T22:25:58.464Z,8.98
2022-12-31T22:28:38.090Z,8.57
2022-12-31T22:31:06.192Z,8.95
2022-12-31T22:33:32.774Z,8.52
2022-12-31T22:36:00.151Z,8.63
2022-12-31T22:38:27.042Z,8.23
2022-12-31T22:41:00.808Z,7.77
2022-12-31T22:43:27.445Z,7.38
2022-12-31T22:45:53.984Z,7.68
2022-12-31T22:48:20.506Z,7.70
2022-12-31T22:50:53.929Z,8.20
2022-12-31T22:53:20.432Z,8.05
2022-12-31T22:55:46.967Z,16.42
2022-12-31T22:58:13.488Z,11.55
2022-12-31T23:00:40.533Z,22.05
2022-12-31T23:03:08.130Z,28.08
2022-12-31T23:05:35.174Z,24.95
2022-12-31T23:08:06.071Z,24.88
2022-12-31T23:10:55.743Z,39.47
2022-12-31T23:13:45.891Z,45.00
2022-12-31T23:16:35.037Z,39.88
2022-12-31T23:19:20.252Z,30.08
2022-12-31T23:22:05.867Z,21.17
2022-12-31T23:24:32.395Z,16.17
2022-12-31T23:26:59.057Z,14.30
2022-12-31T23:29:25.673Z,15.43
2022-12-31T23:31:52.773Z,15.25
2022-12-31T23:34:19.543Z,15.10
2022-12-31T23:36:46.095Z,16.17
2022-12-31T23:39:13.567Z,16.10
2022-12-31T23:41:40.194Z,16.55
2022-12-31T23:44:06.810Z,16.45
2022-12-31T23:46:33.514Z,16.13
2022-12-31T23:49:03.113Z,15.00
2022-12-31T23:51:29.735Z,15.55
2022-12-31T23:53:56.269Z,14.68
2022-12-31T23:56:28.804Z,11.95
2022-12-31T23:58:55.656Z,10.85
